Neuville, Texas
Current Conditions -  °F | °C
As of 1:55 PM on Monday 22 Dec 2014 (Local Time) from KOCH Reporting Station
Broken Clouds Broken Clouds  
Wind Chill: 68°   Ceiling: 3500
Heat Index: 68°   Visibility: 10mi
Dew Point: 55°   Wind: 13mph
Humidity: 64%   Direction: 220°SW
Pressure: 29.59"   Gusts: 23mph
Location:  31.7586°N, 94.1975°W
Report Text: KOCH 221955Z AUTO 22011G20KT 10SM BKN035 20/13 A2959 RMK AO1
Loading
Personal Weather Stations






























Interactive Weather Map New forecast layout! Learn more

10-Day Weather Forecast

Advertisements
Track Severe Weather on mobile